Alameda, New Mexico
Current Conditions -  °F | °C
As of 11:46 AM on Friday 21 Nov 2014 (Local Time) from KAEG Reporting Station
Broken Clouds Broken Clouds  
Wind Chill: 48°   Ceiling: 10000
Heat Index: 48°   Visibility: 10mi
Dew Point: 18°   Wind: 0mph
Humidity: 30%   Direction: NA
Pressure: 30.07"   Gusts: NA
Location:  35.1991°N, 106.662°W
Report Text: KAEG 211846Z 00000KT 10SM BKN100 09/M08 A3007
Loading
Personal Weather Stations






























Interactive Weather Map New forecast layout! Learn more

10-Day Weather Forecast

Advertisements
Track Severe Weather on mobile